Main page
METAR-TAF:

METAR-TAF

Airports :

Cherbourg – Maupertus Airport

Cherbourg, France

latitude: 49-39N, longitude: 001-28W, elevation: 138 m

Current weather observation

The report was made 22 minutes ago, at 17:30 UTC
Wind 4 kt from the South
Temperature 11°C
Humidity 94%
Pressure 1019 hPa
Visibility: 7000 m

METAR: LFRC 151730Z AUTO 17004KT 7000 NSC 11/10 Q1019 BECMG 0500 FG VV///

Time: 18:52 (17:52 UTC)

Forecast

The report was made 45 minutes ago, at 17:07 UTC
Forecast valid from 15 at 17 UTC to 15 at 24 UTC
Wind 5 kt from variable directions
Visibility: 3000 m
Scattered clouds at a height of 500 ft
mist
Becoming
from 15 at 18 UTC to 15 at 20 UTC
Visibility: 0500 m
fog

TAF: LFRC 151707Z 1517/1524 VRB05KT 3000 BR SCT005 BECMG 1518/1520 0500 FG VV///

Weather observations and forecasts of more than 4000 airports (METAR and TAF reports).

The available stations are represented by yellow and red dots on the map.

Hover mouse over dot to see the name of the station.

Then click to see weather observations and forecasts.

To change the map : click on the green buttons with a black cross to zoom in, on the green button with a dash to zoom out, or on the green arrows for adjacent maps.


METAR-TAF: